Annemanie, Alabama
Current Conditions -  °F | °C
As of 4:35 PM on Wednesday 22 Oct 2014 (Local Time) from KDYA Reporting Station
Clear Clear  
Wind Chill: 71°   Ceiling: Unl
Heat Index: 71°   Visibility: 10mi
Dew Point: 39°   Wind: 6mph
Humidity: 31%   Direction: 20°NNE
Pressure: 30.08"   Gusts: NA
Location:  32.05°N, 87.57°W
Report Text: KDYA 222135Z AUTO 02005KT 10SM CLR 22/04 A3008 RMK AO2 T02160037
Loading
Personal Weather Stations






























Interactive Weather Map
Tropical Storm Tracking
New forecast layout! Learn more

10-Day Weather Forecast

Advertisements
Track Severe Weather on mobile